Sy Augusta — PD5307 — position and weather

sailwx.info

Track history (hours):
 
Tides and Currents Weather Stations Pressure Air Temp Water Temp Dewpoint Dewpoint Depression Visibility Wind Speed Wind Dir Waves Ship Positions

Sy Augusta

Last reported at 2017-Sep-25 13:29 UTC. Time now 2017-Sep-25 13:38 UTC.
Position N 37°06' W 008°31'.

Length 14 m.

Type: Pleasure craft. MMSI: 244030920.

Date/timePositionNaut miles runAvg speedWind from/ knotsBaromVisibWave heightAir tempDewpointWater temp
2017-Sep-25 13:29N 37°06' W 008°31'3 6.4
2017-Sep-25 13:00N 37°04' W 008°28'3 6.6
2017-Sep-25 12:30N 37°03' W 008°24'3 6.8
2017-Sep-25 12:00N 37°02' W 008°21'3 5.8
2017-Sep-25 11:30N 37°00' W 008°17'3 6.2
2017-Sep-25 11:00N 36°60' W 008°13'3 5.9
2017-Sep-25 10:30N 36°59' W 008°10'3 6.0
2017-Sep-25 09:57N 36°58' W 008°06'  
2017-Sep-21 13:53N 37°00' W 008°07'3 6.8
2017-Sep-21 13:29N 37°01' W 008°10'3 6.7
2017-Sep-21 13:00N 37°02' W 008°14'3 6.4
2017-Sep-21 12:30N 37°03' W 008°18'3 6.1
2017-Sep-21 12:00N 37°04' W 008°22'3 6.1
2017-Sep-21 11:30N 37°04' W 008°26'3 5.6
2017-Sep-21 11:00N 37°06' W 008°29'2 5.0
2017-Sep-21 10:30N 37°06' W 008°32'0 0.6
2017-Sep-21 09:57N 37°07' W 008°31'0 0.0
2017-Sep-20 09:50N 37°07' W 008°31'0 0.0
2017-Sep-20 09:30N 37°07' W 008°31'0 0.0
2017-Sep-20 09:00N 37°07' W 008°31'0 0.0
2017-Sep-20 08:27N 37°07' W 008°31'0 0.0
2017-Sep-20 07:54N 37°07' W 008°31'0 0.0
2017-Sep-20 07:30N 37°07' W 008°31'0 0.0
2017-Sep-20 06:57N 37°07' W 008°31'0 0.0
2017-Sep-20 06:30N 37°07' W 008°31'0 0.0
2017-Sep-20 06:00N 37°07' W 008°31'0 0.0
2017-Sep-20 05:30N 37°07' W 008°31'0 0.0
2017-Sep-20 04:57N 37°07' W 008°31'0 0.0
2017-Sep-20 04:30N 37°07' W 008°31'0 0.0
2017-Sep-20 04:00N 37°07' W 008°31'0 0.0
2017-Sep-20 03:30N 37°07' W 008°31'0 0.0
2017-Sep-20 02:57N 37°07' W 008°31'0 0.0
2017-Sep-20 02:30N 37°07' W 008°31'0 0.0
2017-Sep-20 02:00N 37°07' W 008°31'0 0.0
2017-Sep-20 01:30N 37°07' W 008°31'0 0.0
2017-Sep-20 00:45N 37°07' W 008°31'0 0.0
2017-Sep-20 00:30N 37°07' W 008°31'0 0.0
2017-Sep-20 00:00N 37°07' W 008°31'0 0.0
2017-Sep-19 23:27N 37°07' W 008°31'0 0.0
2017-Sep-19 23:00N 37°07' W 008°31'0 0.0
2017-Sep-19 22:30N 37°07' W 008°31'0 0.0
2017-Sep-19 21:55N 37°07' W 008°31'0 0.0
2017-Sep-19 21:29N 37°07' W 008°31'0 0.0
2017-Sep-19 20:53N 37°07' W 008°31'0 0.0
2017-Sep-19 20:26N 37°07' W 008°31'0 0.0
2017-Sep-19 19:59N 37°07' W 008°31'0 0.0
2017-Sep-19 19:29N 37°07' W 008°31'0 0.0
2017-Sep-19 18:59N 37°07' W 008°31'0 0.0
2017-Sep-19 18:29N 37°07' W 008°31'0 0.0
2017-Sep-19 17:50N 37°07' W 008°31'0 0.0
2017-Sep-19 17:29N 37°07' W 008°31'0 0.0
2017-Sep-19 16:20N 37°07' W 008°31'0 0.0
2017-Sep-19 15:59N 37°07' W 008°31'0 0.0
2017-Sep-19 15:23N 37°07' W 008°31'1 1.4
2017-Sep-19 14:59N 37°07' W 008°32'0 0.0
2017-Sep-19 14:29N 37°07' W 008°32'0 0.0
2017-Sep-19 13:59N 37°07' W 008°32'0 0.1
2017-Sep-19 13:25N 37°07' W 008°32'0 0.0
2017-Sep-19 12:55N 37°07' W 008°32'0 0.0
2017-Sep-19 12:24N 37°07' W 008°32'0 0.1
2017-Sep-19 12:00N 37°07' W 008°32'1 1.7
2017-Sep-19 11:30N 37°06' W 008°32'3 6.3
2017-Sep-19 11:01N 37°05' W 008°35'3 6.3
2017-Sep-19 10:30N 37°04' W 008°39'3 5.9
2017-Sep-19 10:00N 37°03' W 008°43'3 6.1
2017-Sep-19 09:29N 37°02' W 008°46'3 6.1
2017-Sep-19 08:55N 37°01' W 008°51'37 1.5
2017-Sep-18 09:03N 37°38' W 008°56'0 6.3
2017-Sep-18 08:59N 37°38' W 008°55'3 6.3
2017-Sep-18 08:30N 37°41' W 008°55'3 6.3
2017-Sep-18 08:00N 37°45' W 008°54'3 6.3
2017-Sep-18 07:30N 37°48' W 008°54'3 6.4
2017-Sep-18 07:00N 37°51' W 008°53'3 6.4
2017-Sep-18 06:30N 37°54' W 008°52'3 6.2
2017-Sep-18 06:00N 37°57' W 008°52'0 0.2
2017-Sep-18 05:26N 37°57' W 008°52'0 0.0
2017-Sep-18 04:59N 37°57' W 008°52'0 0.0
2017-Sep-18 04:29N 37°57' W 008°52'0 0.0
2017-Sep-18 03:59N 37°57' W 008°52'0 0.0
2017-Sep-18 03:26N 37°57' W 008°52'0 0.0
2017-Sep-18 02:59N 37°57' W 008°52'0 0.0
2017-Sep-18 02:29N 37°57' W 008°52'0 0.0
2017-Sep-18 01:59N 37°57' W 008°52'0 0.0
2017-Sep-18 01:29N 37°57' W 008°52'0 0.0
2017-Sep-18 00:59N 37°57' W 008°52'0 0.0
2017-Sep-18 00:29N 37°57' W 008°52'0 0.0
2017-Sep-17 23:59N 37°57' W 008°52'0 0.0
2017-Sep-17 23:29N 37°57' W 008°52'0 0.0
2017-Sep-17 22:59N 37°57' W 008°52'0 0.0
2017-Sep-17 22:29N 37°57' W 008°52'0 0.0
2017-Sep-17 21:59N 37°57' W 008°52'0 0.0
2017-Sep-17 21:29N 37°57' W 008°52'0 0.0
2017-Sep-17 20:59N 37°57' W 008°52'0 0.0
2017-Sep-17 20:29N 37°57' W 008°52'0 0.0
2017-Sep-17 19:59N 37°57' W 008°52'0 0.0
2017-Sep-17 19:29N 37°57' W 008°52'0 0.0
2017-Sep-17 18:59N 37°57' W 008°52'0 0.0
2017-Sep-17 18:29N 37°57' W 008°52'0 0.0
2017-Sep-17 17:59N 37°57' W 008°52'0 0.0
2017-Sep-17 17:29N 37°57' W 008°52'0 0.0
2017-Sep-17 16:59N 37°57' W 008°52'0 0.0
2017-Sep-17 16:28N 37°57' W 008°52'0 0.0
2017-Sep-17 15:58N 37°57' W 008°52'0 0.0
2017-Sep-17 15:30N 37°57' W 008°52'2 3.5
2017-Sep-17 15:00N 37°56' W 008°54'3 6.3
2017-Sep-17 14:30N 37°59' W 008°55'3 6.6
2017-Sep-17 13:59N 38°03' W 008°56'3 6.9
2017-Sep-17 13:30N 38°06' W 008°57'3 6.5
2017-Sep-17 13:00N 38°09' W 008°57'3 6.9
2017-Sep-17 12:30N 38°12' W 008°58'4 7.1
2017-Sep-17 11:59N 38°16' W 008°59'3 5.9
2017-Sep-17 11:30N 38°19' W 008°60'3 5.7
2017-Sep-17 11:00N 38°22' W 009°01'2 3.2
2017-Sep-17 10:29N 38°23' W 009°02'3 5.3
2017-Sep-17 09:59N 38°25' W 009°05'2 4.6
2017-Sep-17 09:30N 38°26' W 009°07'0 0.0
2017-Sep-16 19:06N 38°26' W 009°07'0 0.0
2017-Sep-16 19:00N 38°26' W 009°07'0 0.0
2017-Sep-16 18:30N 38°26' W 009°07'0 0.0
2017-Sep-16 18:00N 38°26' W 009°07'0 0.0
2017-Sep-16 17:30N 38°26' W 009°07'0 0.0
2017-Sep-16 16:57N 38°26' W 009°07'0 0.0
2017-Sep-16 16:30N 38°26' W 009°07'0 0.0
2017-Sep-16 16:00N 38°26' W 009°07'0 0.0
2017-Sep-16 15:30N 38°26' W 009°07'0 0.0
2017-Sep-16 14:54N 38°26' W 009°07'0 0.0
2017-Sep-16 14:24N 38°26' W 009°07'0 0.0
2017-Sep-16 14:00N 38°26' W 009°07'0 0.0
2017-Sep-16 13:24N 38°26' W 009°07'0 0.0
2017-Sep-16 13:00N 38°26' W 009°07'0 0.0
2017-Sep-16 12:30N 38°26' W 009°07'0 0.0
2017-Sep-16 12:00N 38°26' W 009°07'0 0.0
2017-Sep-16 11:27N 38°26' W 009°07'  
Track history (hours):
 
Tides and Currents Weather Stations Pressure Air Temp Water Temp Dewpoint Dewpoint Depression Visibility Wind Speed Wind Dir Waves Ship Positions

Sy Augusta

Last reported at 2017-Sep-25 13:29 UTC. Time now 2017-Sep-25 13:38 UTC.
Position N 37°06' W 008°31'.

Length 14 m.

Type: Pleasure craft. MMSI: 244030920.

Date/timePositionNaut miles runAvg speedWind from/ knotsBaromVisibWave heightAir tempDewpointWater temp
2017-Sep-25 13:29N 37°06' W 008°31'3 6.4
2017-Sep-25 13:00N 37°04' W 008°28'3 6.6
2017-Sep-25 12:30N 37°03' W 008°24'3 6.8
2017-Sep-25 12:00N 37°02' W 008°21'3 5.8
2017-Sep-25 11:30N 37°00' W 008°17'3 6.2
2017-Sep-25 11:00N 36°60' W 008°13'3 5.9
2017-Sep-25 10:30N 36°59' W 008°10'3 6.0
2017-Sep-25 09:57N 36°58' W 008°06'  
2017-Sep-21 13:53N 37°00' W 008°07'3 6.8
2017-Sep-21 13:29N 37°01' W 008°10'3 6.7
2017-Sep-21 13:00N 37°02' W 008°14'3 6.4
2017-Sep-21 12:30N 37°03' W 008°18'3 6.1
2017-Sep-21 12:00N 37°04' W 008°22'3 6.1
2017-Sep-21 11:30N 37°04' W 008°26'3 5.6
2017-Sep-21 11:00N 37°06' W 008°29'2 5.0
2017-Sep-21 10:30N 37°06' W 008°32'0 0.6
2017-Sep-21 09:57N 37°07' W 008°31'0 0.0
2017-Sep-20 09:50N 37°07' W 008°31'0 0.0
2017-Sep-20 09:30N 37°07' W 008°31'0 0.0
2017-Sep-20 09:00N 37°07' W 008°31'0 0.0
2017-Sep-20 08:27N 37°07' W 008°31'0 0.0
2017-Sep-20 07:54N 37°07' W 008°31'0 0.0
2017-Sep-20 07:30N 37°07' W 008°31'0 0.0
2017-Sep-20 06:57N 37°07' W 008°31'0 0.0
2017-Sep-20 06:30N 37°07' W 008°31'0 0.0
2017-Sep-20 06:00N 37°07' W 008°31'0 0.0
2017-Sep-20 05:30N 37°07' W 008°31'0 0.0
2017-Sep-20 04:57N 37°07' W 008°31'0 0.0
2017-Sep-20 04:30N 37°07' W 008°31'0 0.0
2017-Sep-20 04:00N 37°07' W 008°31'0 0.0
2017-Sep-20 03:30N 37°07' W 008°31'0 0.0
2017-Sep-20 02:57N 37°07' W 008°31'0 0.0
2017-Sep-20 02:30N 37°07' W 008°31'0 0.0
2017-Sep-20 02:00N 37°07' W 008°31'0 0.0
2017-Sep-20 01:30N 37°07' W 008°31'0 0.0
2017-Sep-20 00:45N 37°07' W 008°31'0 0.0
2017-Sep-20 00:30N 37°07' W 008°31'0 0.0
2017-Sep-20 00:00N 37°07' W 008°31'0 0.0
2017-Sep-19 23:27N 37°07' W 008°31'0 0.0
2017-Sep-19 23:00N 37°07' W 008°31'0 0.0
2017-Sep-19 22:30N 37°07' W 008°31'0 0.0
2017-Sep-19 21:55N 37°07' W 008°31'0 0.0
2017-Sep-19 21:29N 37°07' W 008°31'0 0.0
2017-Sep-19 20:53N 37°07' W 008°31'0 0.0
2017-Sep-19 20:26N 37°07' W 008°31'0 0.0
2017-Sep-19 19:59N 37°07' W 008°31'0 0.0
2017-Sep-19 19:29N 37°07' W 008°31'0 0.0
2017-Sep-19 18:59N 37°07' W 008°31'0 0.0
2017-Sep-19 18:29N 37°07' W 008°31'0 0.0
2017-Sep-19 17:50N 37°07' W 008°31'0 0.0
2017-Sep-19 17:29N 37°07' W 008°31'0 0.0
2017-Sep-19 16:20N 37°07' W 008°31'0 0.0
2017-Sep-19 15:59N 37°07' W 008°31'0 0.0
2017-Sep-19 15:23N 37°07' W 008°31'1 1.4
2017-Sep-19 14:59N 37°07' W 008°32'0 0.0
2017-Sep-19 14:29N 37°07' W 008°32'0 0.0
2017-Sep-19 13:59N 37°07' W 008°32'0 0.1
2017-Sep-19 13:25N 37°07' W 008°32'0 0.0
2017-Sep-19 12:55N 37°07' W 008°32'0 0.0
2017-Sep-19 12:24N 37°07' W 008°32'0 0.1
2017-Sep-19 12:00N 37°07' W 008°32'1 1.7
2017-Sep-19 11:30N 37°06' W 008°32'3 6.3
2017-Sep-19 11:01N 37°05' W 008°35'3 6.3
2017-Sep-19 10:30N 37°04' W 008°39'3 5.9
2017-Sep-19 10:00N 37°03' W 008°43'3 6.1
2017-Sep-19 09:29N 37°02' W 008°46'3 6.1
2017-Sep-19 08:55N 37°01' W 008°51'37 1.5
2017-Sep-18 09:03N 37°38' W 008°56'0 6.3
2017-Sep-18 08:59N 37°38' W 008°55'3 6.3
2017-Sep-18 08:30N 37°41' W 008°55'3 6.3
2017-Sep-18 08:00N 37°45' W 008°54'3 6.3
2017-Sep-18 07:30N 37°48' W 008°54'3 6.4
2017-Sep-18 07:00N 37°51' W 008°53'3 6.4
2017-Sep-18 06:30N 37°54' W 008°52'3 6.2
2017-Sep-18 06:00N 37°57' W 008°52'0 0.2
2017-Sep-18 05:26N 37°57' W 008°52'0 0.0
2017-Sep-18 04:59N 37°57' W 008°52'0 0.0
2017-Sep-18 04:29N 37°57' W 008°52'0 0.0
2017-Sep-18 03:59N 37°57' W 008°52'0 0.0
2017-Sep-18 03:26N 37°57' W 008°52'0 0.0
2017-Sep-18 02:59N 37°57' W 008°52'0 0.0
2017-Sep-18 02:29N 37°57' W 008°52'0 0.0
2017-Sep-18 01:59N 37°57' W 008°52'0 0.0
2017-Sep-18 01:29N 37°57' W 008°52'0 0.0
2017-Sep-18 00:59N 37°57' W 008°52'0 0.0
2017-Sep-18 00:29N 37°57' W 008°52'0 0.0
2017-Sep-17 23:59N 37°57' W 008°52'0 0.0
2017-Sep-17 23:29N 37°57' W 008°52'0 0.0
2017-Sep-17 22:59N 37°57' W 008°52'0 0.0
2017-Sep-17 22:29N 37°57' W 008°52'0 0.0
2017-Sep-17 21:59N 37°57' W 008°52'0 0.0
2017-Sep-17 21:29N 37°57' W 008°52'0 0.0
2017-Sep-17 20:59N 37°57' W 008°52'0 0.0
2017-Sep-17 20:29N 37°57' W 008°52'0 0.0
2017-Sep-17 19:59N 37°57' W 008°52'0 0.0
2017-Sep-17 19:29N 37°57' W 008°52'0 0.0
2017-Sep-17 18:59N 37°57' W 008°52'0 0.0
2017-Sep-17 18:29N 37°57' W 008°52'0 0.0
2017-Sep-17 17:59N 37°57' W 008°52'0 0.0
2017-Sep-17 17:29N 37°57' W 008°52'0 0.0
2017-Sep-17 16:59N 37°57' W 008°52'0 0.0
2017-Sep-17 16:28N 37°57' W 008°52'0 0.0
2017-Sep-17 15:58N 37°57' W 008°52'0 0.0
2017-Sep-17 15:30N 37°57' W 008°52'2 3.5
2017-Sep-17 15:00N 37°56' W 008°54'3 6.3
2017-Sep-17 14:30N 37°59' W 008°55'3 6.6
2017-Sep-17 13:59N 38°03' W 008°56'3 6.9
2017-Sep-17 13:30N 38°06' W 008°57'3 6.5
2017-Sep-17 13:00N 38°09' W 008°57'3 6.9
2017-Sep-17 12:30N 38°12' W 008°58'4 7.1
2017-Sep-17 11:59N 38°16' W 008°59'3 5.9
2017-Sep-17 11:30N 38°19' W 008°60'3 5.7
2017-Sep-17 11:00N 38°22' W 009°01'2 3.2
2017-Sep-17 10:29N 38°23' W 009°02'3 5.3
2017-Sep-17 09:59N 38°25' W 009°05'2 4.6
2017-Sep-17 09:30N 38°26' W 009°07'0 0.0
2017-Sep-16 19:06N 38°26' W 009°07'0 0.0
2017-Sep-16 19:00N 38°26' W 009°07'0 0.0
2017-Sep-16 18:30N 38°26' W 009°07'0 0.0
2017-Sep-16 18:00N 38°26' W 009°07'0 0.0
2017-Sep-16 17:30N 38°26' W 009°07'0 0.0
2017-Sep-16 16:57N 38°26' W 009°07'0 0.0
2017-Sep-16 16:30N 38°26' W 009°07'0 0.0
2017-Sep-16 16:00N 38°26' W 009°07'0 0.0
2017-Sep-16 15:30N 38°26' W 009°07'0 0.0
2017-Sep-16 14:54N 38°26' W 009°07'0 0.0
2017-Sep-16 14:24N 38°26' W 009°07'0 0.0
2017-Sep-16 14:00N 38°26' W 009°07'0 0.0
2017-Sep-16 13:24N 38°26' W 009°07'0 0.0
2017-Sep-16 13:00N 38°26' W 009°07'0 0.0
2017-Sep-16 12:30N 38°26' W 009°07'0 0.0
2017-Sep-16 12:00N 38°26' W 009°07'0 0.0
2017-Sep-16 11:27N 38°26' W 009°07'  

Dump ship's entire track history